Time;durP1;ratioP1;P1;durP2;ratioP2;P2;SDS_P1;SDS_P2;PMS_P1;PMS_P2;Temp;Humidity;BMP_temperature;BMP_pressure;BME280_temperature;BME280_humidity;BME280_pressure;Samples;Min_cycle;Max_cycle;Signal;HPM_P1;HPM_P2
2021/10/09 00:00:07;;;;;;;11.23;10.00;;;;;;;;;;4940107;29;20465;-82
2021/10/09 00:02:33;;;;;;;10.30;9.18;;;;;;;;;;4942313;29;20038;-82
2021/10/09 00:04:59;;;;;;;10.82;9.57;;;;;;;;;;4942234;29;20396;-82
2021/10/09 00:07:26;;;;;;;10.88;8.60;;;;;;;;;;4942708;29;20023;-82
2021/10/09 00:09:54;;;;;;;11.20;9.45;;;;;;;;;;4959956;29;20059;-82
2021/10/09 00:12:20;;;;;;;11.27;10.07;;;;;;;;;;4960399;29;20027;-82
2021/10/09 00:14:45;;;;;;;12.55;11.25;;;;;;;;;;4959704;29;20057;-82
2021/10/09 00:17:14;;;;;;;13.60;10.95;;;;;;;;;;4943257;29;20543;-82
2021/10/09 00:19:40;;;;;;;12.27;10.93;;;;;;;;;;4958076;29;20031;-82
2021/10/09 00:22:05;;;;;;;14.25;11.00;;;;;;;;;;4954872;29;20054;-82
2021/10/09 00:24:32;;;;;;;13.30;11.18;;;;;;;;;;4938844;29;20036;-82
2021/10/09 00:26:57;;;;;;;13.98;10.75;;;;;;;;;;4938671;29;20063;-82
2021/10/09 00:29:23;;;;;;;11.80;10.50;;;;;;;;;;4923823;29;20035;-82
2021/10/09 00:31:49;;;;;;;12.73;10.68;;;;;;;;;;4941974;29;20041;-83
2021/10/09 00:34:14;;;;;;;12.35;10.57;;;;;;;;;;4940222;29;20020;-83
2021/10/09 00:36:39;;;;;;;11.90;9.95;;;;;;;;;;4941146;29;20059;-82
2021/10/09 00:39:05;;;;;;;13.10;10.02;;;;;;;;;;4941919;29;20027;-83
2021/10/09 00:41:31;;;;;;;11.80;10.10;;;;;;;;;;4941938;29;20050;-82
2021/10/09 00:44:09;;;;;;;12.45;10.10;;;;;;;;;;4955076;29;20079;-82
2021/10/09 00:46:34;;;;;;;11.48;10.38;;;;;;;;;;4923643;29;20495;-82
2021/10/09 00:49:01;;;;;;;16.25;10.80;;;;;;;;;;4946788;29;20031;-82
2021/10/09 00:51:27;;;;;;;13.48;10.23;;;;;;;;;;4960939;29;20039;-82
2021/10/09 00:53:52;;;;;;;11.98;9.48;;;;;;;;;;4963888;29;20034;-82
2021/10/09 00:56:18;;;;;;;14.23;10.18;;;;;;;;;;4964526;28;20031;-82
2021/10/09 00:58:46;;;;;;;11.38;10.18;;;;;;;;;;4947627;29;20042;-82
2021/10/09 01:01:11;;;;;;;11.02;9.93;;;;;;;;;;4964016;29;20078;-82
2021/10/09 01:03:38;;;;;;;12.63;11.20;;;;;;;;;;4944689;29;20023;-82
2021/10/09 01:06:03;;;;;;;13.50;11.50;;;;;;;;;;4945493;28;20023;-82
2021/10/09 01:08:28;;;;;;;16.98;11.43;;;;;;;;;;4946504;29;20034;-82
2021/10/09 01:10:54;;;;;;;14.13;11.93;;;;;;;;;;4963631;29;20031;-81
2021/10/09 01:13:19;;;;;;;15.05;11.38;;;;;;;;;;4962566;28;20043;-82
2021/10/09 01:15:45;;;;;;;12.50;10.27;;;;;;;;;;4963662;29;20047;-83
2021/10/09 01:18:13;;;;;;;10.95;9.85;;;;;;;;;;4946041;29;20031;-83
2021/10/09 01:20:55;;;;;;;13.88;10.32;;;;;;;;;;4945312;29;20055;-82
2021/10/09 01:23:22;;;;;;;12.82;10.15;;;;;;;;;;4941431;29;20047;-81
2021/10/09 01:25:48;;;;;;;12.88;10.23;;;;;;;;;;4926422;29;20046;-81
2021/10/09 01:28:14;;;;;;;13.65;11.40;;;;;;;;;;4943212;29;20115;-81
2021/10/09 01:30:40;;;;;;;12.85;10.98;;;;;;;;;;4961913;29;20062;-82
2021/10/09 01:33:06;;;;;;;13.07;10.77;;;;;;;;;;4960925;29;20034;-82
2021/10/09 01:35:44;;;;;;;13.40;12.00;;;;;;;;;;4962370;29;20035;-82
2021/10/09 01:38:10;;;;;;;12.18;10.88;;;;;;;;;;4963742;29;20033;-82
2021/10/09 01:40:35;;;;;;;12.32;11.10;;;;;;;;;;4962275;29;20451;-82
2021/10/09 01:43:01;;;;;;;14.63;11.57;;;;;;;;;;4947369;29;20031;-82
2021/10/09 01:45:26;;;;;;;35.38;21.35;;;;;;;;;;4944552;29;20039;-82
2021/10/09 01:47:52;;;;;;;56.00;30.65;;;;;;;;;;4944558;29;20395;-82
2021/10/09 01:50:17;;;;;;;29.08;18.42;;;;;;;;;;4928893;29;20031;-82
2021/10/09 01:52:42;;;;;;;17.20;13.40;;;;;;;;;;4944976;29;20028;-82
2021/10/09 01:55:08;;;;;;;17.05;12.07;;;;;;;;;;4944056;29;20098;-83
2021/10/09 01:57:36;;;;;;;15.90;11.65;;;;;;;;;;4929117;29;20114;-83
2021/10/09 02:00:05;;;;;;;14.50;12.32;;;;;;;;;;4960236;28;20035;-82
2021/10/09 02:02:32;;;;;;;14.52;12.77;;;;;;;;;;4944059;29;20043;-82
2021/10/09 02:04:57;;;;;;;13.77;12.18;;;;;;;;;;4942720;29;20043;-82
2021/10/09 02:07:24;;;;;;;14.27;12.88;;;;;;;;;;4941010;29;20047;-82
2021/10/09 02:09:51;;;;;;;14.80;12.73;;;;;;;;;;4924832;29;20408;-82
2021/10/09 02:12:16;;;;;;;14.68;13.07;;;;;;;;;;4942517;29;20031;-82
2021/10/09 02:14:47;;;;;;;15.18;12.90;;;;;;;;;;4936527;29;20029;-83
2021/10/09 02:25:26;;;;;;;14.75;13.25;;;;;;;;;;4960352;29;20138;-82
2021/10/09 02:27:54;;;;;;;15.43;13.20;;;;;;;;;;4960802;29;20514;-82
2021/10/09 02:30:19;;;;;;;15.10;13.23;;;;;;;;;;4942784;29;20035;-82
2021/10/09 02:32:45;;;;;;;13.93;12.45;;;;;;;;;;4943215;29;20023;-82
2021/10/09 02:35:10;;;;;;;16.23;12.35;;;;;;;;;;4944090;29;20035;-82
2021/10/09 02:37:36;;;;;;;15.15;12.60;;;;;;;;;;4942813;29;20027;-83
2021/10/09 02:40:01;;;;;;;16.35;13.15;;;;;;;;;;4926123;29;20563;-82
2021/10/09 02:42:27;;;;;;;14.48;13.00;;;;;;;;;;4929724;29;20034;-83
2021/10/09 02:44:52;;;;;;;16.33;12.38;;;;;;;;;;4948187;29;20407;-82
2021/10/09 02:47:18;;;;;;;17.52;12.63;;;;;;;;;;4944760;29;20087;-82
2021/10/09 02:49:44;;;;;;;15.15;12.80;;;;;;;;;;4964104;29;20067;-82
2021/10/09 02:52:09;;;;;;;15.05;12.55;;;;;;;;;;4965161;29;20027;-82
2021/10/09 02:54:36;;;;;;;15.35;12.48;;;;;;;;;;4963914;29;20046;-82
2021/10/09 02:57:09;;;;;;;16.33;12.48;;;;;;;;;;4965163;29;20117;-83
2021/10/09 02:59:34;;;;;;;17.48;13.20;;;;;;;;;;4965642;29;20393;-83
2021/10/09 03:02:00;;;;;;;15.38;13.20;;;;;;;;;;4963634;29;20031;-83
2021/10/09 03:04:25;;;;;;;13.57;12.15;;;;;;;;;;4953641;29;20408;-82
2021/10/09 03:06:51;;;;;;;17.60;13.27;;;;;;;;;;4925389;29;20062;-82
2021/10/09 03:09:16;;;;;;;14.82;12.68;;;;;;;;;;4964440;29;20023;-82
2021/10/09 03:11:42;;;;;;;15.75;13.27;;;;;;;;;;4962160;28;20027;-82
2021/10/09 03:14:07;;;;;;;16.52;13.57;;;;;;;;;;4960997;29;20062;-82
2021/10/09 03:16:34;;;;;;;16.50;13.75;;;;;;;;;;4959934;29;20039;-82
2021/10/09 03:18:59;;;;;;;18.05;12.88;;;;;;;;;;4959695;29;20159;-82
2021/10/09 03:21:25;;;;;;;15.57;13.98;;;;;;;;;;4959654;29;20035;-82
2021/10/09 03:23:50;;;;;;;14.77;13.27;;;;;;;;;;4958015;29;20082;-82
2021/10/09 03:26:15;;;;;;;16.30;14.30;;;;;;;;;;4951150;29;20035;-82
2021/10/09 03:28:41;;;;;;;15.57;13.95;;;;;;;;;;4939530;29;20032;-82
2021/10/09 03:31:06;;;;;;;16.15;14.48;;;;;;;;;;4922606;29;20127;-81
2021/10/09 03:33:32;;;;;;;16.50;14.20;;;;;;;;;;4921100;29;20020;-81
2021/10/09 03:35:57;;;;;;;17.75;14.13;;;;;;;;;;4937927;29;20027;-81
2021/10/09 03:38:23;;;;;;;16.48;14.45;;;;;;;;;;4939297;29;20039;-82
2021/10/09 03:40:54;;;;;;;15.73;14.07;;;;;;;;;;4947461;29;20518;-82
2021/10/09 03:43:22;;;;;;;14.93;13.43;;;;;;;;;;4943023;29;20031;-82
2021/10/09 03:48:38;;;;;;;15.63;14.02;;;;;;;;;;4942630;29;20028;-82
2021/10/09 03:53:49;;;;;;;17.75;14.32;;;;;;;;;;4942349;29;20048;-83
2021/10/09 03:56:14;;;;;;;17.38;14.48;;;;;;;;;;4960787;29;20027;-83
2021/10/09 03:58:40;;;;;;;16.55;14.77;;;;;;;;;;4948289;29;20047;-82
2021/10/09 04:01:05;;;;;;;16.08;13.73;;;;;;;;;;4941977;29;20027;-82
2021/10/09 04:03:31;;;;;;;16.80;14.00;;;;;;;;;;4924943;29;20032;-82
2021/10/09 04:05:56;;;;;;;17.10;14.35;;;;;;;;;;4960502;29;20122;-83
2021/10/09 04:08:21;;;;;;;15.80;14.20;;;;;;;;;;4943648;29;20031;-83
2021/10/09 04:10:47;;;;;;;16.63;14.75;;;;;;;;;;4943770;29;20035;-82
2021/10/09 04:13:12;;;;;;;15.73;13.88;;;;;;;;;;4942190;29;20134;-81
2021/10/09 04:15:38;;;;;;;16.35;14.55;;;;;;;;;;4939738;29;20043;-82
2021/10/09 04:18:03;;;;;;;19.83;15.13;;;;;;;;;;4941141;29;20117;-82
2021/10/09 04:20:29;;;;;;;16.48;14.73;;;;;;;;;;4942096;29;20035;-82
2021/10/09 04:22:54;;;;;;;17.70;14.73;;;;;;;;;;4941272;29;20526;-82
2021/10/09 04:25:20;;;;;;;18.48;16.27;;;;;;;;;;4959207;29;20035;-83
2021/10/09 04:27:45;;;;;;;19.33;16.48;;;;;;;;;;4956652;29;20031;-82
2021/10/09 04:30:11;;;;;;;22.88;17.50;;;;;;;;;;4956432;29;20423;-82
2021/10/09 04:32:37;;;;;;;19.15;17.02;;;;;;;;;;4939742;29;20023;-82
2021/10/09 04:35:02;;;;;;;18.33;16.50;;;;;;;;;;4956683;29;20419;-82
2021/10/09 04:37:28;;;;;;;18.83;16.80;;;;;;;;;;4957224;29;20031;-82
2021/10/09 04:39:54;;;;;;;19.67;17.40;;;;;;;;;;4957108;29;20373;-82
2021/10/09 04:42:19;;;;;;;19.45;17.45;;;;;;;;;;4939065;29;20090;-82
2021/10/09 04:44:45;;;;;;;20.20;18.02;;;;;;;;;;4926845;29;20035;-82
2021/10/09 04:47:10;;;;;;;19.77;17.02;;;;;;;;;;4928887;29;20038;-83
2021/10/09 04:49:36;;;;;;;22.73;18.88;;;;;;;;;;4935528;29;20036;-82
2021/10/09 04:52:02;;;;;;;19.98;17.88;;;;;;;;;;4934042;29;20035;-82
2021/10/09 04:54:27;;;;;;;21.88;18.42;;;;;;;;;;4948652;29;20082;-83
2021/10/09 04:56:52;;;;;;;22.40;18.77;;;;;;;;;;4943581;29;20451;-82
2021/10/09 04:59:18;;;;;;;20.25;18.08;;;;;;;;;;4959565;29;20070;-82
2021/10/09 05:01:43;;;;;;;21.58;18.48;;;;;;;;;;4940773;29;20027;-82
2021/10/09 05:04:09;;;;;;;24.58;19.58;;;;;;;;;;4943617;29;20040;-82
2021/10/09 05:06:34;;;;;;;22.83;18.60;;;;;;;;;;4938177;29;20035;-82
2021/10/09 05:08:59;;;;;;;20.92;18.73;;;;;;;;;;4922384;29;20055;-82
2021/10/09 05:11:26;;;;;;;23.17;19.27;;;;;;;;;;4922018;29;20036;-82
2021/10/09 05:13:52;;;;;;;21.70;19.40;;;;;;;;;;4921402;29;20052;-82
2021/10/09 05:16:17;;;;;;;22.52;19.08;;;;;;;;;;4922259;29;20043;-83
2021/10/09 05:18:42;;;;;;;23.45;18.95;;;;;;;;;;4939517;29;20024;-82
2021/10/09 05:21:08;;;;;;;22.25;19.20;;;;;;;;;;4946899;29;20033;-82
2021/10/09 05:23:35;;;;;;;25.50;21.40;;;;;;;;;;4941562;29;20104;-82
2021/10/09 05:26:00;;;;;;;24.25;21.65;;;;;;;;;;4939269;29;20403;-82
2021/10/09 05:28:36;;;;;;;28.05;23.25;;;;;;;;;;4957036;29;20031;-82
2021/10/09 05:31:01;;;;;;;29.80;23.85;;;;;;;;;;4938803;29;20027;-81
2021/10/09 05:35:56;;;;;;;29.50;25.33;;;;;;;;;;4959312;29;20182;-82
2021/10/09 05:38:21;;;;;;;30.67;24.70;;;;;;;;;;4956966;29;20147;-82
2021/10/09 05:40:47;;;;;;;30.92;26.42;;;;;;;;;;4941150;29;20465;-81
2021/10/09 05:43:14;;;;;;;31.00;25.35;;;;;;;;;;4947522;29;20042;-82
2021/10/09 05:45:40;;;;;;;27.55;24.30;;;;;;;;;;4923662;29;20032;-82
2021/10/09 05:48:06;;;;;;;29.63;25.17;;;;;;;;;;4942107;29;20039;-82
2021/10/09 05:53:39;;;;;;;31.45;26.35;;;;;;;;;;4944753;29;20523;-82
2021/10/09 06:49:10;;;;;;;38.72;31.08;;;;;;;;;;4938867;29;20140;-83
2021/10/09 06:59:42;;;;;;;41.00;31.55;;;;;;;;;;4867713;29;20065;-84
2021/10/09 15:39:01;;;;;;;19.47;13.30;;;;;;;;;;6120299;23;20025;31
2021/10/09 15:41:27;;;;;;;17.95;13.20;;;;;;;;;;4919217;29;20078;-82
2021/10/09 15:43:53;;;;;;;22.60;14.55;;;;;;;;;;4922119;29;20029;-82
2021/10/09 15:46:18;;;;;;;21.13;15.05;;;;;;;;;;4907190;29;20051;-82
2021/10/09 15:48:44;;;;;;;18.25;14.43;;;;;;;;;;4921098;29;20064;-81
2021/10/09 15:51:09;;;;;;;21.10;15.32;;;;;;;;;;4920636;29;20386;-82
2021/10/09 15:53:35;;;;;;;24.13;17.33;;;;;;;;;;4915488;29;20076;-81
2021/10/09 15:56:00;;;;;;;21.48;16.67;;;;;;;;;;4907186;29;20020;-80
2021/10/09 15:58:26;;;;;;;21.60;16.27;;;;;;;;;;4909906;29;20024;-81
2021/10/09 16:00:51;;;;;;;23.08;17.08;;;;;;;;;;4907266;29;20493;-81
2021/10/09 16:03:16;;;;;;;23.40;16.05;;;;;;;;;;4910967;29;20104;-80
2021/10/09 16:05:42;;;;;;;23.40;17.73;;;;;;;;;;4905266;29;20028;-82
2021/10/09 16:08:07;;;;;;;21.77;17.45;;;;;;;;;;4914966;29;20035;-81
2021/10/09 16:10:33;;;;;;;23.63;17.75;;;;;;;;;;4912828;29;20020;-81
2021/10/09 16:12:59;;;;;;;23.40;17.48;;;;;;;;;;4910949;29;20023;-80
2021/10/09 16:15:25;;;;;;;24.83;18.02;;;;;;;;;;4914803;29;20421;-81
2021/10/09 16:17:50;;;;;;;23.00;17.35;;;;;;;;;;4913540;29;20024;-81
2021/10/09 16:20:16;;;;;;;23.55;18.17;;;;;;;;;;4908487;29;20098;-80
2021/10/09 16:22:41;;;;;;;22.50;17.73;;;;;;;;;;4911873;29;20568;-81
2021/10/09 16:25:09;;;;;;;24.60;18.23;;;;;;;;;;4914066;29;20025;-81
2021/10/09 16:27:34;;;;;;;22.25;17.27;;;;;;;;;;4912970;29;20028;-80
2021/10/09 16:30:00;;;;;;;22.90;18.13;;;;;;;;;;4912235;29;20093;-81
2021/10/09 16:32:25;;;;;;;26.02;19.25;;;;;;;;;;4908158;29;20111;-81
2021/10/09 16:34:51;;;;;;;24.45;18.40;;;;;;;;;;4899438;29;20032;-80
2021/10/09 16:37:17;;;;;;;23.95;18.05;;;;;;;;;;4899332;29;20120;-80
2021/10/09 17:10:44;;;;;;;23.15;19.92;;;;;;;;;;4591325;27;20061;-83
2021/10/09 17:13:32;;;;;;;22.48;19.10;;;;;;;;;;4935933;29;20031;-82
2021/10/09 17:16:03;;;;;;;22.92;18.55;;;;;;;;;;4940330;29;20045;-84
2021/10/09 17:18:44;;;;;;;24.83;18.70;;;;;;;;;;4920371;29;20044;-83
2021/10/09 17:21:12;;;;;;;23.85;19.02;;;;;;;;;;4934170;29;20039;-82
2021/10/09 17:23:38;;;;;;;22.27;18.80;;;;;;;;;;4927973;29;20020;-81
2021/10/09 17:26:08;;;;;;;23.85;19.02;;;;;;;;;;4912174;29;20060;-82
2021/10/09 17:28:34;;;;;;;23.15;19.08;;;;;;;;;;4909316;29;20579;-82
2021/10/09 17:31:00;;;;;;;24.65;19.70;;;;;;;;;;4946776;29;20023;-82
2021/10/09 17:33:25;;;;;;;27.30;19.92;;;;;;;;;;4931223;29;20056;-83
2021/10/09 17:35:52;;;;;;;24.67;19.75;;;;;;;;;;4907545;29;20028;-83
2021/10/09 17:38:18;;;;;;;22.85;20.25;;;;;;;;;;4910010;29;20035;-83
2021/10/09 17:40:43;;;;;;;25.60;20.48;;;;;;;;;;4913262;29;20043;-83
2021/10/09 17:43:12;;;;;;;23.55;20.20;;;;;;;;;;4916778;29;20024;-82
2021/10/09 17:45:38;;;;;;;28.95;20.75;;;;;;;;;;4930305;29;20043;-82
2021/10/09 17:48:05;;;;;;;26.73;21.23;;;;;;;;;;4929755;29;20424;-82
2021/10/09 17:50:32;;;;;;;22.98;19.73;;;;;;;;;;4928532;29;20111;-82
2021/10/09 17:52:59;;;;;;;25.58;21.23;;;;;;;;;;4932992;29;20043;-83
2021/10/09 17:55:26;;;;;;;26.15;21.15;;;;;;;;;;4931318;29;20059;-83
2021/10/09 17:57:53;;;;;;;26.25;21.08;;;;;;;;;;4932444;29;20035;-83
2021/10/09 18:00:21;;;;;;;26.40;20.45;;;;;;;;;;4916320;29;20032;-82
2021/10/09 18:02:47;;;;;;;27.77;21.77;;;;;;;;;;4929669;29;20028;-82
2021/10/09 18:05:12;;;;;;;27.33;22.27;;;;;;;;;;4926864;29;20047;-83
2021/10/09 18:07:38;;;;;;;24.67;21.42;;;;;;;;;;4928210;29;20028;-82
2021/10/09 18:10:07;;;;;;;24.38;20.92;;;;;;;;;;4904418;29;20113;-82
2021/10/09 18:12:33;;;;;;;27.00;22.58;;;;;;;;;;4890810;29;20127;-82
2021/10/09 18:15:02;;;;;;;26.48;21.50;;;;;;;;;;4909535;29;20031;-83
2021/10/09 18:17:28;;;;;;;25.95;21.35;;;;;;;;;;4907919;29;20040;-83
2021/10/09 18:19:53;;;;;;;28.77;22.60;;;;;;;;;;4878340;29;20037;-83
2021/10/09 18:22:20;;;;;;;28.80;22.00;;;;;;;;;;4909928;29;20524;-82
2021/10/09 18:24:47;;;;;;;28.55;23.25;;;;;;;;;;4910169;29;20029;-82
2021/10/09 18:27:13;;;;;;;27.63;23.08;;;;;;;;;;4895744;29;20060;-83
2021/10/09 18:29:40;;;;;;;26.50;22.33;;;;;;;;;;4921827;29;20024;-83
2021/10/09 18:32:08;;;;;;;28.85;23.17;;;;;;;;;;4916102;29;20106;-83
2021/10/09 18:34:36;;;;;;;28.85;23.15;;;;;;;;;;4933178;29;20096;-83
2021/10/09 18:37:03;;;;;;;27.63;22.70;;;;;;;;;;4916771;29;20107;-82
2021/10/09 18:39:31;;;;;;;26.63;23.38;;;;;;;;;;4912860;29;20051;-83
2021/10/09 18:42:03;;;;;;;28.38;24.08;;;;;;;;;;4911670;29;20032;-83
2021/10/09 18:44:28;;;;;;;28.50;23.05;;;;;;;;;;4909729;29;20028;-83
2021/10/09 18:46:56;;;;;;;29.73;23.70;;;;;;;;;;4909441;29;20025;-83
2021/10/09 18:49:24;;;;;;;28.75;22.80;;;;;;;;;;4892912;29;20041;-82
2021/10/09 18:51:53;;;;;;;27.17;22.60;;;;;;;;;;4908428;29;20478;-83
2021/10/09 18:54:18;;;;;;;28.95;23.30;;;;;;;;;;4892494;29;20035;-82
2021/10/09 18:56:44;;;;;;;30.80;23.17;;;;;;;;;;4910728;29;20024;-82
2021/10/09 18:59:09;;;;;;;28.40;23.23;;;;;;;;;;4909936;29;20025;-82
2021/10/09 19:01:37;;;;;;;27.70;24.00;;;;;;;;;;4908176;29;20021;-83
2021/10/09 19:04:03;;;;;;;28.73;23.88;;;;;;;;;;4910210;29;20031;-82
2021/10/09 19:06:28;;;;;;;28.67;24.25;;;;;;;;;;4891674;29;20037;-83
2021/10/09 19:08:54;;;;;;;29.75;22.67;;;;;;;;;;4905940;29;20509;-82
2021/10/09 19:11:22;;;;;;;29.15;23.67;;;;;;;;;;4908014;29;20060;-83
2021/10/09 19:13:49;;;;;;;30.38;24.75;;;;;;;;;;4906247;29;20040;-82
2021/10/09 19:16:14;;;;;;;30.08;25.75;;;;;;;;;;4906825;29;20028;-82
2021/10/09 19:18:42;;;;;;;32.25;24.58;;;;;;;;;;4889359;29;20035;-82
2021/10/09 19:21:07;;;;;;;31.52;24.90;;;;;;;;;;4906182;29;20123;-82
2021/10/09 19:23:33;;;;;;;31.25;24.58;;;;;;;;;;4909393;29;20517;-82
2021/10/09 19:25:59;;;;;;;30.23;24.30;;;;;;;;;;4909508;29;20035;-83
2021/10/09 19:28:25;;;;;;;32.47;25.17;;;;;;;;;;4889558;29;20157;-82
2021/10/09 19:30:51;;;;;;;29.33;25.00;;;;;;;;;;4906152;29;20024;-82
2021/10/09 19:33:16;;;;;;;31.73;26.60;;;;;;;;;;4873603;29;20469;-82
2021/10/09 19:35:54;;;;;;;31.08;25.48;;;;;;;;;;4905128;29;20473;-82
2021/10/09 19:38:19;;;;;;;31.65;25.80;;;;;;;;;;4906920;29;20036;-83
2021/10/09 19:40:48;;;;;;;32.17;26.15;;;;;;;;;;4905101;29;20028;-82
2021/10/09 19:43:14;;;;;;;30.30;24.75;;;;;;;;;;4904112;29;20032;-82
2021/10/09 19:45:39;;;;;;;32.30;25.80;;;;;;;;;;4888280;29;20409;-82
2021/10/09 19:48:06;;;;;;;29.58;25.23;;;;;;;;;;4889555;29;20119;-83
2021/10/09 19:51:05;;;;;;;31.48;24.88;;;;;;;;;;4907013;29;20461;-83
2021/10/09 19:53:35;;;;;;;29.35;24.98;;;;;;;;;;4907460;29;20029;-83
2021/10/09 19:56:30;;;;;;;32.80;26.77;;;;;;;;;;4915432;29;20021;-84
2021/10/09 19:59:03;;;;;;;33.53;27.48;;;;;;;;;;4915669;29;20025;-83
2021/10/09 20:01:35;;;;;;;38.90;28.92;;;;;;;;;;4883185;29;20389;-83
2021/10/09 20:04:06;;;;;;;34.17;26.90;;;;;;;;;;4911188;29;20100;-82
2021/10/09 20:06:40;;;;;;;35.88;27.70;;;;;;;;;;4910124;29;20047;-83
2021/10/09 20:09:13;;;;;;;30.25;26.05;;;;;;;;;;4912401;29;20029;-83
2021/10/09 20:14:42;;;;;;;35.67;26.17;;;;;;;;;;4894395;29;20172;-83
2021/10/09 20:17:10;;;;;;;36.03;26.80;;;;;;;;;;4907806;29;20021;-83
2021/10/09 20:19:41;;;;;;;40.13;27.48;;;;;;;;;;4891167;29;20118;-83
2021/10/09 20:22:12;;;;;;;36.00;28.33;;;;;;;;;;4876738;29;20124;-83
2021/10/09 20:24:50;;;;;;;31.73;26.17;;;;;;;;;;4894133;29;20067;-82
2021/10/09 20:27:17;;;;;;;33.95;26.50;;;;;;;;;;4886841;29;20049;-82
2021/10/09 20:29:43;;;;;;;32.80;26.67;;;;;;;;;;4890234;29;20485;-82
2021/10/09 20:32:10;;;;;;;39.55;29.80;;;;;;;;;;4906489;29;20028;-82
2021/10/09 20:34:41;;;;;;;34.53;28.35;;;;;;;;;;4891184;29;20028;-82
2021/10/09 20:37:08;;;;;;;30.38;25.17;;;;;;;;;;4908743;29;20024;-82
2021/10/09 20:39:34;;;;;;;32.25;25.90;;;;;;;;;;4907803;29;20028;-82
2021/10/09 20:42:01;;;;;;;34.83;27.17;;;;;;;;;;4890587;29;20037;-82
2021/10/09 20:44:36;;;;;;;35.83;27.70;;;;;;;;;;4908569;29;20029;-83
2021/10/09 20:47:07;;;;;;;31.92;26.95;;;;;;;;;;4907750;29;20028;-82
2021/10/09 20:49:34;;;;;;;32.20;24.83;;;;;;;;;;4906288;29;20032;-82
2021/10/09 20:52:03;;;;;;;34.28;26.50;;;;;;;;;;4874413;29;20105;-83
2021/10/09 20:54:30;;;;;;;28.23;25.17;;;;;;;;;;4907856;29;20021;-83
2021/10/09 20:56:55;;;;;;;35.25;27.17;;;;;;;;;;4890607;29;20491;-83
2021/10/09 20:59:21;;;;;;;31.33;26.10;;;;;;;;;;4908793;29;20028;-82
2021/10/09 21:01:46;;;;;;;32.30;27.77;;;;;;;;;;4906852;29;20044;-82
2021/10/09 21:04:12;;;;;;;30.48;25.10;;;;;;;;;;4906687;29;20021;-83
2021/10/09 21:06:42;;;;;;;31.27;25.75;;;;;;;;;;4909660;29;20028;-83
2021/10/09 21:09:23;;;;;;;34.47;27.10;;;;;;;;;;4892683;29;20077;-82
2021/10/09 21:12:00;;;;;;;29.70;25.30;;;;;;;;;;4909236;29;20041;-82
2021/10/09 21:23:00;;;;;;;31.17;25.83;;;;;;;;;;4851038;29;20072;-83
2021/10/09 21:25:34;;;;;;;29.05;23.88;;;;;;;;;;4855344;29;20072;-82
2021/10/09 21:28:00;;;;;;;28.75;24.73;;;;;;;;;;4855842;29;20049;-82
2021/10/09 21:30:27;;;;;;;30.10;25.15;;;;;;;;;;4856536;29;20042;-82
2021/10/09 21:32:52;;;;;;;27.48;24.02;;;;;;;;;;4852054;29;20114;-82
2021/10/09 21:35:19;;;;;;;29.50;24.15;;;;;;;;;;4840393;29;20057;-82
2021/10/09 21:37:45;;;;;;;27.17;24.17;;;;;;;;;;4868103;29;20029;-82
2021/10/09 21:40:12;;;;;;;30.15;25.02;;;;;;;;;;4850276;29;20038;-82
2021/10/09 21:42:37;;;;;;;34.83;25.63;;;;;;;;;;4830121;29;20061;-82
2021/10/09 21:45:05;;;;;;;29.83;25.70;;;;;;;;;;4848603;29;20144;-83
2021/10/09 21:47:31;;;;;;;30.65;25.13;;;;;;;;;;4849848;29;20046;-83
2021/10/09 21:49:57;;;;;;;32.05;24.98;;;;;;;;;;4835426;29;20042;-82
2021/10/09 21:52:22;;;;;;;30.35;25.17;;;;;;;;;;4835168;29;20056;-82
2021/10/09 21:54:48;;;;;;;31.10;25.42;;;;;;;;;;4851124;29;20077;-82
2021/10/09 21:57:51;;;;;;;32.05;25.20;;;;;;;;;;4849449;29;20139;-83
2021/10/09 22:16:54;;;;;;;30.63;24.88;;;;;;;;;;4912537;29;20039;-82
2021/10/09 22:32:59;;;;;;;33.13;27.65;;;;;;;;;;4910470;29;20051;-82
2021/10/09 22:35:25;;;;;;;31.25;26.15;;;;;;;;;;4915162;29;20036;-83
2021/10/09 22:37:51;;;;;;;31.60;25.55;;;;;;;;;;4898895;29;20549;-82
2021/10/09 22:40:19;;;;;;;32.33;26.95;;;;;;;;;;4921653;29;20035;-83
2021/10/09 22:42:45;;;;;;;30.80;24.30;;;;;;;;;;4891100;29;20107;-81
2021/10/09 22:45:13;;;;;;;31.75;26.45;;;;;;;;;;4927075;29;20052;-82
2021/10/09 22:47:39;;;;;;;32.53;26.27;;;;;;;;;;4909426;29;20042;-82
2021/10/09 22:50:06;;;;;;;29.60;24.75;;;;;;;;;;4924269;29;20035;-82
2021/10/09 22:52:32;;;;;;;29.88;25.05;;;;;;;;;;4925280;29;20039;-82
2021/10/09 22:54:58;;;;;;;29.85;24.35;;;;;;;;;;4918779;29;20024;-82
2021/10/09 22:57:23;;;;;;;30.20;24.52;;;;;;;;;;4907860;29;20048;-82
2021/10/09 22:59:49;;;;;;;30.30;24.70;;;;;;;;;;4890887;29;20092;-82
2021/10/09 23:02:14;;;;;;;30.83;25.20;;;;;;;;;;4915189;29;20035;-82
2021/10/09 23:04:40;;;;;;;32.53;25.23;;;;;;;;;;4905029;29;20039;-82
2021/10/09 23:07:07;;;;;;;29.90;25.25;;;;;;;;;;4888920;29;20500;-83
2021/10/09 23:09:32;;;;;;;30.02;24.67;;;;;;;;;;4902802;29;20481;-82
2021/10/09 23:11:58;;;;;;;31.20;24.33;;;;;;;;;;4888681;29;20080;-82
2021/10/09 23:14:23;;;;;;;29.27;24.58;;;;;;;;;;4893312;29;20024;-82
2021/10/09 23:16:48;;;;;;;32.08;25.85;;;;;;;;;;4923811;29;20104;-82
2021/10/09 23:19:15;;;;;;;29.80;25.42;;;;;;;;;;4910705;29;20032;-83
2021/10/09 23:21:41;;;;;;;29.80;24.90;;;;;;;;;;4917540;29;20043;-82
2021/10/09 23:24:08;;;;;;;30.55;25.65;;;;;;;;;;4926996;29;20036;-83
2021/10/09 23:26:34;;;;;;;29.15;25.55;;;;;;;;;;4913876;29;20061;-82
2021/10/09 23:29:00;;;;;;;31.17;25.80;;;;;;;;;;4920984;29;20028;-82
2021/10/09 23:31:26;;;;;;;29.45;25.23;;;;;;;;;;4926589;29;20040;-82
2021/10/09 23:33:52;;;;;;;30.98;24.27;;;;;;;;;;4925899;29;20144;-82
2021/10/09 23:36:17;;;;;;;28.33;24.20;;;;;;;;;;4924106;29;20087;-82
2021/10/09 23:38:46;;;;;;;29.50;24.33;;;;;;;;;;4926469;29;20030;-83
2021/10/09 23:41:14;;;;;;;30.40;24.45;;;;;;;;;;4913536;29;20084;-83
2021/10/09 23:43:40;;;;;;;31.88;24.02;;;;;;;;;;4907590;29;20035;-83
2021/10/09 23:46:06;;;;;;;31.60;24.63;;;;;;;;;;4922863;29;20060;-82
2021/10/09 23:48:35;;;;;;;30.65;24.15;;;;;;;;;;4928735;29;20028;-82
2021/10/09 23:51:04;;;;;;;28.92;24.63;;;;;;;;;;4916375;29;20119;-82
2021/10/09 23:53:35;;;;;;;30.50;24.33;;;;;;;;;;4895035;29;20032;-82
2021/10/09 23:56:04;;;;;;;28.85;23.38;;;;;;;;;;4907517;29;20040;-82
2021/10/09 23:58:37;;;;;;;36.05;26.25;;;;;;;;;;4911988;29;20036;-83
